createdAt,value
2023-03-07T00:01:38.014Z,33.30
2023-03-07T00:04:11.097Z,33.10
2023-03-07T00:06:46.361Z,28.60
2023-03-07T00:09:19.536Z,29.60
2023-03-07T00:11:52.904Z,29.00
2023-03-07T00:14:26.052Z,33.70
2023-03-07T00:16:58.751Z,30.50
2023-03-07T00:19:31.320Z,32.80
2023-03-07T00:22:03.910Z,31.40
2023-03-07T00:24:36.597Z,31.30
2023-03-07T00:27:10.611Z,29.90
2023-03-07T00:29:45.721Z,29.00
2023-03-07T00:32:18.311Z,28.20
2023-03-07T00:34:50.862Z,31.00
2023-03-07T00:37:23.894Z,33.00
2023-03-07T00:39:56.684Z,31.30
2023-03-07T00:42:30.497Z,29.80
2023-03-07T00:45:06.855Z,27.70
2023-03-07T00:48:00.097Z,24.60
2023-03-07T00:50:32.936Z,25.60
2023-03-07T00:53:07.353Z,43.70
2023-03-07T00:55:40.288Z,35.60
2023-03-07T00:58:13.214Z,26.60
2023-03-07T01:00:46.566Z,24.90
2023-03-07T01:03:20.749Z,24.90
2023-03-07T01:05:53.839Z,24.10
2023-03-07T01:08:26.821Z,22.40
2023-03-07T01:11:05.151Z,25.00
2023-03-07T01:16:15.873Z,23.80
2023-03-07T01:18:52.839Z,25.00
2023-03-07T01:21:28.880Z,23.60
2023-03-07T01:24:02.901Z,24.10
2023-03-07T01:26:36.172Z,47.60
2023-03-07T01:29:12.236Z,35.80
2023-03-07T01:31:45.192Z,26.20
2023-03-07T01:34:18.054Z,22.60
2023-03-07T01:36:50.950Z,22.20
2023-03-07T01:39:23.684Z,23.10
2023-03-07T01:42:03.139Z,24.20
2023-03-07T01:45:03.478Z,26.20
2023-03-07T01:47:46.078Z,24.50
2023-03-07T01:50:20.766Z,24.10
2023-03-07T01:52:55.609Z,25.20
2023-03-07T01:55:33.024Z,25.00
2023-03-07T01:58:18.501Z,22.90
2023-03-07T02:00:52.117Z,25.50
2023-03-07T02:03:30.934Z,36.00
2023-03-07T02:06:09.086Z,31.70
2023-03-07T02:08:43.599Z,26.90
2023-03-07T02:11:17.150Z,24.80
2023-03-07T02:13:49.815Z,23.80
2023-03-07T02:16:23.503Z,23.10
2023-03-07T02:18:56.498Z,24.60
2023-03-07T02:21:40.357Z,23.50
2023-03-07T02:24:22.363Z,24.00
2023-03-07T02:26:56.568Z,23.20
2023-03-07T02:29:29.204Z,24.80
2023-03-07T02:32:01.998Z,23.70
2023-03-07T02:34:35.171Z,24.60
2023-03-07T02:37:18.400Z,27.50
2023-03-07T02:39:51.981Z,25.50
2023-03-07T02:42:28.311Z,22.90
2023-03-07T02:45:11.708Z,22.30
2023-03-07T02:47:47.426Z,23.80
2023-03-07T02:50:22.249Z,24.10
2023-03-07T02:53:06.722Z,21.40
2023-03-07T02:55:52.763Z,21.40
2023-03-07T02:58:46.457Z,22.80
2023-03-07T03:01:30.450Z,20.80
2023-03-07T03:04:23.546Z,22.00
2023-03-07T03:07:09.523Z,22.40
2023-03-07T03:09:52.984Z,22.40
2023-03-07T03:12:28.687Z,19.70
2023-03-07T03:15:08.022Z,21.30
2023-03-07T03:17:56.176Z,21.10
2023-03-07T03:20:42.423Z,22.30
2023-03-07T03:23:36.460Z,23.90
2023-03-07T03:26:29.300Z,23.10
2023-03-07T03:29:02.119Z,24.60
2023-03-07T03:31:48.405Z,26.70
2023-03-07T03:34:41.670Z,24.10
2023-03-07T03:37:36.404Z,22.00
2023-03-07T03:40:17.403Z,25.40
2023-03-07T03:43:01.140Z,24.70
2023-03-07T03:45:38.088Z,25.80
2023-03-07T03:48:24.307Z,27.10
2023-03-07T03:51:10.258Z,27.90
2023-03-07T03:54:03.272Z,29.40
2023-03-07T03:56:49.605Z,28.20
2023-03-07T03:59:43.788Z,25.90
2023-03-07T04:02:33.419Z,28.00
2023-03-07T04:05:11.090Z,28.90
2023-03-07T04:07:57.523Z,28.80
2023-03-07T04:10:50.671Z,26.80
2023-03-07T04:13:34.727Z,28.80
2023-03-07T04:16:19.573Z,28.20
2023-03-07T04:19:02.880Z,27.00
2023-03-07T04:21:55.003Z,27.20
2023-03-07T04:24:48.435Z,27.10
2023-03-07T04:27:35.457Z,24.40
2023-03-07T04:30:21.557Z,25.20
2023-03-07T04:33:14.933Z,26.90
2023-03-07T04:35:58.730Z,26.20
2023-03-07T04:38:53.926Z,25.90
2023-03-07T04:41:40.688Z,26.00
2023-03-07T04:44:22.564Z,25.40
2023-03-07T04:47:15.693Z,26.50
2023-03-07T04:50:09.749Z,28.40
2023-03-07T04:53:02.809Z,25.20
2023-03-07T04:56:00.876Z,26.90
2023-03-07T04:58:53.589Z,26.60
2023-03-07T05:01:47.041Z,25.90
2023-03-07T05:04:39.925Z,25.50
2023-03-07T05:07:31.883Z,26.50
2023-03-07T05:10:24.782Z,27.00
2023-03-07T05:12:57.914Z,25.20
2023-03-07T05:15:57.066Z,23.70
2023-03-07T05:18:42.896Z,25.50
2023-03-07T05:21:35.979Z,26.90
2023-03-07T05:24:29.181Z,25.20
2023-03-07T05:27:21.925Z,26.60
2023-03-07T05:29:57.939Z,24.80
2023-03-07T05:32:51.506Z,26.20
2023-03-07T05:35:39.446Z,23.10
2023-03-07T05:38:32.560Z,23.10
2023-03-07T05:41:25.476Z,24.50
2023-03-07T05:44:18.308Z,24.70
2023-03-07T05:47:11.558Z,27.60
2023-03-07T05:50:04.925Z,23.20
2023-03-07T05:52:58.069Z,24.60
2023-03-07T05:55:50.956Z,24.90
2023-03-07T05:58:44.556Z,24.90
2023-03-07T06:01:37.510Z,24.60
2023-03-07T06:04:30.614Z,24.80
2023-03-07T06:07:24.101Z,24.00
2023-03-07T06:10:07.203Z,26.40
2023-03-07T06:12:45.307Z,24.90
2023-03-07T06:15:38.427Z,22.00
2023-03-07T06:18:31.456Z,25.70
2023-03-07T06:21:12.427Z,24.10
2023-03-07T06:23:54.315Z,23.50
2023-03-07T06:26:37.414Z,24.70
2023-03-07T06:29:27.535Z,24.90
2023-03-07T06:32:03.995Z,23.10
2023-03-07T06:34:55.949Z,24.00
2023-03-07T06:37:38.576Z,23.80
2023-03-07T06:40:23.023Z,24.40
2023-03-07T06:43:16.075Z,26.50
2023-03-07T06:45:51.802Z,24.40
2023-03-07T06:48:25.704Z,24.20
2023-03-07T06:51:19.007Z,22.40
2023-03-07T06:54:02.501Z,22.90
2023-03-07T06:56:38.508Z,25.00
2023-03-07T06:59:21.733Z,23.70
2023-03-07T07:02:16.767Z,25.50
2023-03-07T07:05:10.824Z,26.50
2023-03-07T07:07:47.031Z,25.00
2023-03-07T07:10:38.970Z,27.20
2023-03-07T07:13:31.763Z,27.00
2023-03-07T07:16:26.443Z,25.70
2023-03-07T07:19:19.323Z,22.40
2023-03-07T07:22:16.044Z,25.10
2023-03-07T07:25:01.769Z,26.20
2023-03-07T07:27:37.933Z,22.40
2023-03-07T07:30:22.781Z,26.10
2023-03-07T07:32:59.281Z,29.00
2023-03-07T07:35:32.837Z,24.80
2023-03-07T07:38:16.806Z,27.40
2023-03-07T07:40:50.059Z,30.90
2023-03-07T07:43:34.255Z,27.70
2023-03-07T07:46:43.932Z,23.80
2023-03-07T07:49:36.990Z,24.90
2023-03-07T07:52:24.130Z,25.10
2023-03-07T07:55:17.101Z,24.40
2023-03-07T07:58:01.143Z,26.50
2023-03-07T08:00:54.367Z,24.90
2023-03-07T08:03:48.125Z,22.10
2023-03-07T08:06:41.255Z,22.90
2023-03-07T08:09:23.091Z,23.10
2023-03-07T08:11:58.621Z,21.30
2023-03-07T08:14:51.393Z,21.90
2023-03-07T08:17:44.565Z,26.50
2023-03-07T08:20:37.774Z,25.50
2023-03-07T08:23:30.880Z,26.80
2023-03-07T08:26:11.497Z,24.50
2023-03-07T08:28:54.225Z,22.00
2023-03-07T08:31:51.374Z,21.20
2023-03-07T08:34:24.325Z,23.90
2023-03-07T08:37:17.342Z,23.70
2023-03-07T08:39:50.364Z,25.70
2023-03-07T08:42:43.891Z,24.30
2023-03-07T08:45:17.852Z,26.10
2023-03-07T08:48:11.713Z,20.90
2023-03-07T08:50:47.158Z,24.00
2023-03-07T08:53:28.740Z,24.60
2023-03-07T08:56:10.964Z,22.50
2023-03-07T08:58:53.433Z,28.10
2023-03-07T09:01:31.429Z,25.90
2023-03-07T09:04:07.211Z,24.20
2023-03-07T09:06:40.074Z,23.20
2023-03-07T09:09:26.873Z,20.10
2023-03-07T09:12:19.685Z,21.40
2023-03-07T09:15:05.559Z,23.70
2023-03-07T09:17:51.505Z,20.80
2023-03-07T09:20:35.921Z,24.30
2023-03-07T09:23:29.117Z,19.80
2023-03-07T09:26:24.533Z,21.10
2023-03-07T09:29:17.432Z,19.60
2023-03-07T09:32:06.412Z,20.00
2023-03-07T09:34:59.473Z,20.50
2023-03-07T09:37:52.884Z,20.00
2023-03-07T09:40:48.470Z,21.30
2023-03-07T09:43:47.157Z,18.90
2023-03-07T09:47:02.385Z,20.30
2023-03-07T09:49:47.293Z,19.90
2023-03-07T09:52:34.993Z,19.00
2023-03-07T09:55:22.084Z,19.30
2023-03-07T09:57:58.061Z,21.80
2023-03-07T10:00:57.352Z,16.60
2023-03-07T10:03:48.216Z,17.10
2023-03-07T10:06:44.318Z,16.40
2023-03-07T10:09:37.420Z,17.60
2023-03-07T10:12:42.922Z,17.00
2023-03-07T10:15:45.694Z,18.20
2023-03-07T10:18:49.781Z,17.70
2023-03-07T10:21:41.309Z,16.20
2023-03-07T10:24:48.203Z,15.70
2023-03-07T10:27:34.067Z,16.70
2023-03-07T10:30:26.662Z,16.30
2023-03-07T10:33:21.277Z,13.40
2023-03-07T10:36:00.787Z,15.40
2023-03-07T10:38:43.428Z,16.20
2023-03-07T10:41:18.543Z,17.40
2023-03-07T10:43:53.514Z,16.70
2023-03-07T10:46:32.102Z,17.70
2023-03-07T10:49:15.037Z,16.00
2023-03-07T10:52:03.807Z,16.90
2023-03-07T10:54:40.455Z,15.90
2023-03-07T10:57:16.605Z,15.60
2023-03-07T10:59:51.028Z,18.40
2023-03-07T11:02:41.509Z,16.90
2023-03-07T11:05:32.615Z,20.50
2023-03-07T11:08:28.443Z,14.60
2023-03-07T11:11:02.796Z,15.60
2023-03-07T11:13:37.825Z,15.20
2023-03-07T11:16:21.095Z,16.60
2023-03-07T11:18:54.469Z,16.00
2023-03-07T11:21:35.244Z,16.70
2023-03-07T11:24:21.599Z,15.40
2023-03-07T11:26:58.441Z,16.30
2023-03-07T11:29:33.715Z,16.60
2023-03-07T11:32:15.725Z,17.00
2023-03-07T11:34:54.236Z,15.70
2023-03-07T11:37:34.381Z,13.80
2023-03-07T11:40:25.637Z,16.10
2023-03-07T11:43:14.932Z,16.40
2023-03-07T11:45:56.494Z,14.80
2023-03-07T11:48:43.475Z,16.20
2023-03-07T11:51:33.574Z,15.00
2023-03-07T11:54:16.706Z,16.20
2023-03-07T11:57:20.026Z,15.20
2023-03-07T12:00:18.848Z,15.90
2023-03-07T12:03:06.244Z,15.50
2023-03-07T12:05:55.747Z,14.30
2023-03-07T12:08:40.741Z,14.00
2023-03-07T12:11:26.642Z,15.30
2023-03-07T12:14:13.873Z,14.20
2023-03-07T12:16:54.210Z,14.80
2023-03-07T12:19:54.301Z,15.50
2023-03-07T12:22:31.563Z,14.60
2023-03-07T12:25:14.957Z,17.20
2023-03-07T12:27:51.880Z,15.60
2023-03-07T12:30:35.094Z,14.70
2023-03-07T12:33:08.775Z,14.60
2023-03-07T12:35:47.869Z,14.70
2023-03-07T12:38:29.257Z,15.40
2023-03-07T12:41:07.001Z,15.50
2023-03-07T12:43:45.285Z,15.70
2023-03-07T12:46:24.937Z,14.70
2023-03-07T12:49:06.135Z,14.80
2023-03-07T12:51:43.580Z,16.30
2023-03-07T12:54:23.810Z,14.90
2023-03-07T12:57:01.545Z,15.50
2023-03-07T12:59:37.327Z,15.80
2023-03-07T13:02:16.683Z,17.90
2023-03-07T13:04:49.488Z,14.70
2023-03-07T13:07:26.240Z,14.00
2023-03-07T13:10:00.800Z,14.90
2023-03-07T13:12:36.772Z,15.80
2023-03-07T13:15:32.508Z,16.40
2023-03-07T13:18:29.342Z,15.10
2023-03-07T13:21:34.206Z,15.50
2023-03-07T13:24:34.290Z,15.30
2023-03-07T13:27:16.939Z,18.30
2023-03-07T13:30:21.737Z,15.20
2023-03-07T13:33:01.793Z,17.90
2023-03-07T13:35:59.392Z,16.40
2023-03-07T13:38:44.279Z,15.50
2023-03-07T13:41:47.838Z,18.50
2023-03-07T13:44:42.502Z,16.60
2023-03-07T13:47:43.949Z,16.50
2023-03-07T13:51:01.292Z,16.30
2023-03-07T13:53:41.049Z,15.70
2023-03-07T13:56:31.115Z,16.50
2023-03-07T13:59:16.930Z,18.40
2023-03-07T14:02:18.289Z,17.20
2023-03-07T14:04:55.482Z,16.20
2023-03-07T14:07:43.461Z,18.50
2023-03-07T14:10:24.016Z,17.90
2023-03-07T14:13:44.929Z,16.50
2023-03-07T14:16:29.416Z,16.90
2023-03-07T14:19:31.797Z,20.60
2023-03-07T14:22:36.782Z,20.70
2023-03-07T14:25:32.272Z,26.30
2023-03-07T14:28:28.102Z,26.10
2023-03-07T14:31:21.695Z,33.40
2023-03-07T14:34:30.980Z,24.20
2023-03-07T14:37:26.683Z,21.10
2023-03-07T14:40:41.523Z,21.00
2023-03-07T14:43:52.952Z,23.80
2023-03-07T14:46:36.606Z,22.20
2023-03-07T14:49:31.168Z,21.40
2023-03-07T14:52:30.120Z,22.20
2023-03-07T14:55:21.422Z,24.30
2023-03-07T14:58:07.673Z,22.40
2023-03-07T15:00:44.325Z,27.30
2023-03-07T15:03:17.472Z,40.20
2023-03-07T15:05:57.588Z,32.10
2023-03-07T15:08:52.291Z,25.80
2023-03-07T15:11:36.509Z,31.60
2023-03-07T15:14:19.803Z,29.50
2023-03-07T15:17:11.055Z,26.30
2023-03-07T15:19:49.751Z,27.60
2023-03-07T15:22:40.228Z,47.60
2023-03-07T15:25:26.053Z,43.00
2023-03-07T15:28:04.538Z,46.60
2023-03-07T15:30:58.043Z,31.70
2023-03-07T15:33:32.258Z,42.30
2023-03-07T15:36:21.739Z,37.60
2023-03-07T15:39:35.729Z,42.90
2023-03-07T15:42:24.107Z,33.00
2023-03-07T15:45:01.609Z,29.70
2023-03-07T15:47:37.389Z,29.00
2023-03-07T15:50:27.134Z,30.40
2023-03-07T15:53:08.180Z,40.70
2023-03-07T15:55:41.537Z,36.10
2023-03-07T15:58:17.849Z,38.20
2023-03-07T16:01:04.862Z,42.50
2023-03-07T16:03:37.711Z,31.40
2023-03-07T16:09:15.880Z,38.20
2023-03-07T16:12:15.081Z,33.70
2023-03-07T16:14:50.527Z,39.60
2023-03-07T16:17:27.232Z,41.00
2023-03-07T16:20:20.341Z,36.90
2023-03-07T16:23:03.154Z,38.70
2023-03-07T16:25:38.806Z,37.00
2023-03-07T16:28:31.662Z,39.40
2023-03-07T16:31:20.078Z,47.60
2023-03-07T16:34:02.865Z,55.40
2023-03-07T16:36:38.698Z,61.50
2023-03-07T16:39:15.287Z,73.60
2023-03-07T16:42:09.601Z,57.40
2023-03-07T16:44:43.793Z,54.20
2023-03-07T16:47:19.931Z,57.50
2023-03-07T16:50:19.977Z,54.40
2023-03-07T16:53:02.956Z,59.40
2023-03-07T16:55:57.869Z,48.70
2023-03-07T16:58:50.878Z,44.20
2023-03-07T17:01:43.935Z,41.10
2023-03-07T17:04:26.678Z,46.30
2023-03-07T17:07:19.439Z,42.30
2023-03-07T17:10:13.870Z,40.20
2023-03-07T17:13:01.736Z,34.40
2023-03-07T17:15:39.112Z,34.20
2023-03-07T17:18:16.385Z,36.70
2023-03-07T17:21:10.456Z,36.80
2023-03-07T17:24:03.361Z,37.60
2023-03-07T17:26:57.845Z,40.20
2023-03-07T17:29:44.668Z,42.90
2023-03-07T17:32:20.388Z,43.50
2023-03-07T17:34:53.069Z,46.30
2023-03-07T17:37:28.542Z,46.10
2023-03-07T17:40:10.206Z,47.70
2023-03-07T17:42:55.028Z,80.00
2023-03-07T17:45:48.022Z,48.90
2023-03-07T17:48:21.464Z,41.90
2023-03-07T17:50:53.974Z,39.70
2023-03-07T17:53:26.727Z,41.00
2023-03-07T17:56:06.979Z,42.00
2023-03-07T17:58:41.234Z,51.50
2023-03-07T18:01:15.270Z,54.40
2023-03-07T18:04:08.899Z,54.70
2023-03-07T18:07:01.918Z,118.30
2023-03-07T18:10:07.174Z,156.00
2023-03-07T18:12:44.758Z,73.30
2023-03-07T18:15:30.105Z,48.40
2023-03-07T18:18:06.997Z,38.90
2023-03-07T18:20:40.531Z,42.70
2023-03-07T18:23:33.702Z,38.30
2023-03-07T18:26:15.048Z,37.30
2023-03-07T18:29:07.779Z,43.60
2023-03-07T18:32:00.887Z,66.40
2023-03-07T18:34:37.930Z,41.90
2023-03-07T18:37:23.347Z,47.00
2023-03-07T18:39:56.076Z,43.90
2023-03-07T18:42:42.744Z,39.30
2023-03-07T18:45:16.544Z,34.80
2023-03-07T18:47:55.340Z,35.60
2023-03-07T18:50:30.562Z,32.20
2023-03-07T18:53:11.333Z,31.90
2023-03-07T18:55:49.704Z,28.30
2023-03-07T18:58:43.610Z,29.80
2023-03-07T19:01:21.476Z,28.90
2023-03-07T19:04:03.030Z,27.80
2023-03-07T19:06:38.802Z,29.40
2023-03-07T19:09:19.681Z,28.00
2023-03-07T19:11:52.286Z,26.90
2023-03-07T19:14:28.040Z,27.60
2023-03-07T19:17:20.840Z,28.30
2023-03-07T19:19:59.363Z,25.30
2023-03-07T19:22:35.078Z,29.80
2023-03-07T19:25:12.004Z,32.20
2023-03-07T19:27:45.089Z,26.20
2023-03-07T19:30:20.809Z,25.90
2023-03-07T19:32:59.851Z,26.70
2023-03-07T19:36:02.037Z,22.30
2023-03-07T19:38:57.853Z,22.50
2023-03-07T19:41:35.819Z,23.70
2023-03-07T19:44:28.591Z,21.80
2023-03-07T19:47:01.121Z,22.00
2023-03-07T19:49:37.263Z,22.30
2023-03-07T19:52:27.008Z,24.30
2023-03-07T19:55:02.890Z,29.20
2023-03-07T19:57:47.029Z,32.20
2023-03-07T20:00:40.587Z,29.00
2023-03-07T20:03:26.905Z,30.80
2023-03-07T20:05:59.837Z,27.80
2023-03-07T20:08:34.590Z,25.60
2023-03-07T20:11:15.469Z,22.80
2023-03-07T20:14:08.494Z,23.40
2023-03-07T20:16:44.303Z,22.90
2023-03-07T20:19:16.919Z,27.20
2023-03-07T20:21:50.929Z,23.30
2023-03-07T20:24:23.684Z,23.30
2023-03-07T20:26:56.599Z,23.50
2023-03-07T20:29:49.947Z,24.10
2023-03-07T20:32:22.818Z,21.10
2023-03-07T20:34:56.311Z,24.40
2023-03-07T20:37:32.401Z,22.40
2023-03-07T20:40:06.602Z,21.60
2023-03-07T20:42:41.663Z,22.80
2023-03-07T20:45:15.074Z,25.20
2023-03-07T20:47:56.652Z,23.40
2023-03-07T20:50:29.317Z,21.40
2023-03-07T20:53:08.340Z,23.60
2023-03-07T20:56:05.750Z,23.90
2023-03-07T20:58:45.392Z,24.00
2023-03-07T21:01:23.591Z,23.00
2023-03-07T21:04:00.602Z,24.80
2023-03-07T21:06:36.777Z,23.70
2023-03-07T21:09:14.169Z,26.20
2023-03-07T21:11:50.266Z,24.20
2023-03-07T21:14:26.308Z,26.50
2023-03-07T21:16:58.968Z,25.20
2023-03-07T21:19:31.669Z,24.50
2023-03-07T21:22:13.314Z,22.50
2023-03-07T21:24:46.239Z,23.20
2023-03-07T21:27:18.725Z,22.60
2023-03-07T21:30:02.943Z,24.90
2023-03-07T21:32:38.336Z,23.60
2023-03-07T21:35:12.714Z,22.10
2023-03-07T21:37:45.427Z,26.10
2023-03-07T21:40:19.018Z,22.80
2023-03-07T21:42:51.723Z,22.50
2023-03-07T21:45:25.671Z,22.50
2023-03-07T21:48:20.674Z,23.10
2023-03-07T21:51:13.629Z,22.30
2023-03-07T21:53:46.798Z,24.10
2023-03-07T21:56:23.881Z,21.70
2023-03-07T21:58:59.182Z,21.30
2023-03-07T22:01:42.913Z,22.80
2023-03-07T22:04:16.892Z,21.30
2023-03-07T22:06:51.745Z,25.00
2023-03-07T22:09:24.370Z,23.10
2023-03-07T22:11:59.818Z,20.80
2023-03-07T22:14:35.644Z,23.10
2023-03-07T22:17:09.621Z,24.70
2023-03-07T22:19:45.300Z,22.50
2023-03-07T22:22:17.852Z,23.30
2023-03-07T22:24:51.376Z,23.40
2023-03-07T22:27:24.057Z,24.30
2023-03-07T22:30:07.942Z,20.70
2023-03-07T22:32:40.684Z,22.60
2023-03-07T22:35:13.865Z,24.00
2023-03-07T22:37:46.779Z,23.20
2023-03-07T22:40:21.626Z,22.60
2023-03-07T22:43:04.348Z,23.00
2023-03-07T22:45:40.126Z,23.20
2023-03-07T22:48:12.865Z,23.40
2023-03-07T22:50:48.826Z,22.50
2023-03-07T22:53:21.551Z,23.70
2023-03-07T22:55:54.173Z,22.40
2023-03-07T22:58:27.196Z,23.90
2023-03-07T23:00:59.853Z,22.40
2023-03-07T23:03:34.033Z,22.40
2023-03-07T23:06:07.021Z,24.70
2023-03-07T23:08:39.542Z,25.00
2023-03-07T23:11:12.792Z,20.00
2023-03-07T23:13:45.874Z,22.50
2023-03-07T23:16:20.808Z,24.80
2023-03-07T23:18:55.763Z,22.90
2023-03-07T23:21:31.249Z,24.30
2023-03-07T23:24:05.299Z,22.30
2023-03-07T23:26:40.277Z,21.90
2023-03-07T23:29:22.941Z,20.70
2023-03-07T23:31:55.566Z,21.60
2023-03-07T23:34:28.112Z,23.10
2023-03-07T23:37:01.025Z,24.40
2023-03-07T23:39:33.749Z,23.90
2023-03-07T23:42:07.584Z,20.50
2023-03-07T23:44:43.450Z,20.50
2023-03-07T23:47:15.958Z,22.40
2023-03-07T23:49:48.570Z,21.30
2023-03-07T23:52:21.220Z,19.90
2023-03-07T23:54:53.780Z,22.40
2023-03-07T23:57:26.517Z,22.40
2023-03-07T23:59:59.033Z,19.20
